createdAt,value
2022-11-09T00:01:57.564Z,5.20
2022-11-09T00:04:24.146Z,3.30
2022-11-09T00:06:52.659Z,5.07
2022-11-09T00:09:19.521Z,3.42
2022-11-09T00:11:47.874Z,3.65
2022-11-09T00:14:15.171Z,3.22
2022-11-09T00:16:41.695Z,3.45
2022-11-09T00:19:08.357Z,3.05
2022-11-09T00:21:35.242Z,4.25
2022-11-09T00:24:01.846Z,4.55
2022-11-09T00:26:28.517Z,2.92
2022-11-09T00:28:56.545Z,3.75
2022-11-09T00:31:24.320Z,4.38
2022-11-09T00:33:51.912Z,3.88
2022-11-09T00:36:19.684Z,6.47
2022-11-09T00:38:49.312Z,5.03
2022-11-09T00:41:16.618Z,3.40
2022-11-09T00:43:43.252Z,3.92
2022-11-09T00:46:11.617Z,2.92
2022-11-09T00:48:38.431Z,4.72
2022-11-09T00:51:05.299Z,3.40
2022-11-09T00:53:32.792Z,4.20
2022-11-09T00:56:01.186Z,3.28
2022-11-09T00:58:30.155Z,5.63
2022-11-09T01:00:58.172Z,2.58
2022-11-09T01:03:26.900Z,2.88
2022-11-09T01:05:53.521Z,2.92
2022-11-09T01:08:20.162Z,2.50
2022-11-09T01:10:48.222Z,3.22
2022-11-09T01:13:16.840Z,6.65
2022-11-09T01:15:46.068Z,4.22
2022-11-09T01:18:13.814Z,3.35
2022-11-09T01:20:43.956Z,3.47
2022-11-09T01:23:11.688Z,5.40
2022-11-09T01:25:38.694Z,4.60
2022-11-09T01:28:06.673Z,5.75
2022-11-09T01:30:35.127Z,3.90
2022-11-09T01:33:03.843Z,4.05
2022-11-09T01:35:33.075Z,2.67
2022-11-09T01:38:02.261Z,3.78
2022-11-09T01:40:30.364Z,2.38
2022-11-09T01:42:57.587Z,6.50
2022-11-09T01:45:27.581Z,5.40
2022-11-09T01:48:00.118Z,2.17
2022-11-09T01:50:36.497Z,3.63
2022-11-09T01:53:09.752Z,1.95
2022-11-09T01:55:36.825Z,3.30
2022-11-09T01:58:07.019Z,5.35
2022-11-09T02:00:36.215Z,2.75
2022-11-09T02:03:08.803Z,2.35
2022-11-09T02:05:39.929Z,4.70
2022-11-09T02:08:10.286Z,3.17
2022-11-09T02:10:44.393Z,4.00
2022-11-09T02:13:13.691Z,2.65
2022-11-09T02:15:45.396Z,4.78
2022-11-09T02:18:13.086Z,6.70
2022-11-09T02:20:48.510Z,3.70
2022-11-09T02:23:15.257Z,3.38
2022-11-09T02:25:46.229Z,2.75
2022-11-09T02:28:14.007Z,5.22
2022-11-09T02:30:41.965Z,2.92
2022-11-09T02:33:08.608Z,3.10
2022-11-09T02:35:35.417Z,4.50
2022-11-09T02:38:03.683Z,3.28
2022-11-09T02:40:34.372Z,5.95
2022-11-09T02:43:01.587Z,3.93
2022-11-09T02:45:28.129Z,2.67
2022-11-09T02:47:54.901Z,4.25
2022-11-09T02:50:21.573Z,4.05
2022-11-09T02:52:48.400Z,4.00
2022-11-09T02:55:16.440Z,2.88
2022-11-09T02:57:43.106Z,6.13
2022-11-09T03:00:13.309Z,3.20
2022-11-09T03:02:41.475Z,3.45
2022-11-09T03:05:08.641Z,4.57
2022-11-09T03:07:36.870Z,4.88
2022-11-09T03:10:04.552Z,3.33
2022-11-09T03:12:32.644Z,3.35
2022-11-09T03:15:07.581Z,3.25
2022-11-09T03:17:35.163Z,4.93
2022-11-09T03:20:01.957Z,5.40
2022-11-09T03:22:28.838Z,4.43
2022-11-09T03:24:55.456Z,4.00
2022-11-09T03:27:22.316Z,3.83
2022-11-09T03:29:50.742Z,4.25
2022-11-09T03:32:17.509Z,4.97
2022-11-09T03:34:44.168Z,3.17
2022-11-09T03:37:12.812Z,3.90
2022-11-09T03:39:39.400Z,7.38
2022-11-09T03:42:06.021Z,2.33
2022-11-09T03:44:32.801Z,5.03
2022-11-09T03:47:00.794Z,5.10
2022-11-09T03:49:27.321Z,2.30
2022-11-09T03:51:53.977Z,5.03
2022-11-09T03:54:20.568Z,3.88
2022-11-09T03:56:47.129Z,2.75
2022-11-09T03:59:13.899Z,4.10
2022-11-09T04:01:40.643Z,4.78
2022-11-09T04:04:08.713Z,4.65
2022-11-09T04:06:35.398Z,5.05
2022-11-09T04:09:02.100Z,3.70
2022-11-09T04:11:28.868Z,3.10
2022-11-09T04:13:55.433Z,3.72
2022-11-09T04:16:22.094Z,8.05
2022-11-09T04:18:48.616Z,6.20
2022-11-09T04:21:20.313Z,4.63
2022-11-09T04:23:50.319Z,3.58
2022-11-09T04:26:16.860Z,2.55
2022-11-09T04:28:43.441Z,3.42
2022-11-09T04:31:10.016Z,4.28
2022-11-09T04:33:36.689Z,3.38
2022-11-09T04:36:04.068Z,3.75
2022-11-09T04:38:32.707Z,3.50
2022-11-09T04:41:03.281Z,3.53
2022-11-09T04:43:30.025Z,3.90
2022-11-09T04:46:00.494Z,3.13
2022-11-09T04:48:27.456Z,5.50
2022-11-09T04:50:59.340Z,3.53
2022-11-09T04:53:26.155Z,4.90
2022-11-09T04:55:54.280Z,4.40
2022-11-09T04:58:24.822Z,4.13
2022-11-09T05:00:53.335Z,3.38
2022-11-09T05:03:20.700Z,8.10
2022-11-09T05:05:48.709Z,3.28
2022-11-09T05:08:15.590Z,4.28
2022-11-09T05:10:42.283Z,4.32
2022-11-09T05:13:12.224Z,4.03
2022-11-09T05:15:39.452Z,3.35
2022-11-09T05:18:06.897Z,4.03
2022-11-09T05:20:34.038Z,3.40
2022-11-09T05:23:01.065Z,3.75
2022-11-09T05:25:27.637Z,3.60
2022-11-09T05:27:54.487Z,3.72
2022-11-09T05:30:22.643Z,3.58
2022-11-09T05:32:49.203Z,6.07
2022-11-09T05:35:16.116Z,2.47
2022-11-09T05:37:42.753Z,3.75
2022-11-09T05:40:10.810Z,4.15
2022-11-09T05:42:38.779Z,4.53
2022-11-09T05:45:35.539Z,5.20
2022-11-09T05:47:54.076Z,4.13
2022-11-09T05:50:20.647Z,3.17
2022-11-09T05:52:51.928Z,3.92
2022-11-09T05:55:18.567Z,2.70
2022-11-09T05:57:45.130Z,4.35
2022-11-09T06:00:13.386Z,2.25
2022-11-09T06:02:40.187Z,4.43
2022-11-09T06:05:09.235Z,4.38
2022-11-09T06:07:35.771Z,2.95
2022-11-09T06:10:02.444Z,3.33
2022-11-09T06:12:29.055Z,2.70
2022-11-09T06:14:55.636Z,2.47
2022-11-09T06:17:23.643Z,3.33
2022-11-09T06:19:50.294Z,2.33
2022-11-09T06:22:18.415Z,2.30
2022-11-09T06:24:45.051Z,3.45
2022-11-09T06:27:11.568Z,2.67
2022-11-09T06:29:38.171Z,1.52
2022-11-09T06:32:05.215Z,5.15
2022-11-09T06:34:31.869Z,2.20
2022-11-09T06:36:58.417Z,4.20
2022-11-09T06:39:26.409Z,2.38
2022-11-09T06:41:52.925Z,2.10
2022-11-09T06:44:19.539Z,3.08
2022-11-09T06:46:46.064Z,3.60
2022-11-09T06:49:12.680Z,1.90
2022-11-09T06:51:39.250Z,3.42
2022-11-09T06:54:06.166Z,3.90
2022-11-09T06:56:34.197Z,4.15
2022-11-09T06:59:00.742Z,5.07
2022-11-09T07:01:28.854Z,7.43
2022-11-09T07:03:55.904Z,7.00
2022-11-09T07:06:22.789Z,3.78
2022-11-09T07:08:49.418Z,3.42
2022-11-09T07:11:16.483Z,2.40
2022-11-09T07:13:44.419Z,2.90
2022-11-09T07:16:10.940Z,2.55
2022-11-09T07:18:37.493Z,2.95
2022-11-09T07:21:07.729Z,3.75
2022-11-09T07:23:38.753Z,2.72
2022-11-09T07:26:06.267Z,5.50
2022-11-09T07:28:33.120Z,4.80
2022-11-09T07:31:01.088Z,3.08
2022-11-09T07:33:27.843Z,3.08
2022-11-09T07:35:54.456Z,2.33
2022-11-09T07:38:21.015Z,8.73
2022-11-09T07:40:47.501Z,4.85
2022-11-09T07:43:14.309Z,4.57
2022-11-09T07:45:42.456Z,2.60
2022-11-09T07:48:11.443Z,4.22
2022-11-09T07:50:39.209Z,2.15
2022-11-09T07:53:06.556Z,1.77
2022-11-09T07:55:34.194Z,2.38
2022-11-09T07:58:02.631Z,2.47
2022-11-09T08:00:30.813Z,1.88
2022-11-09T08:02:57.613Z,1.73
2022-11-09T08:05:26.283Z,2.40
2022-11-09T08:07:55.658Z,2.42
2022-11-09T08:10:22.220Z,5.22
2022-11-09T08:12:53.215Z,2.38
2022-11-09T08:15:19.890Z,5.90
2022-11-09T08:17:46.656Z,5.53
2022-11-09T08:20:13.440Z,5.40
2022-11-09T08:22:42.613Z,4.20
2022-11-09T08:25:09.825Z,2.45
2022-11-09T08:27:36.549Z,2.97
2022-11-09T08:30:03.575Z,4.57
2022-11-09T08:32:30.161Z,3.42
2022-11-09T08:34:56.963Z,5.03
2022-11-09T08:37:23.720Z,3.63
2022-11-09T08:39:51.718Z,3.67
2022-11-09T08:42:18.268Z,4.38
2022-11-09T08:44:44.907Z,3.97
2022-11-09T08:47:11.510Z,4.70
2022-11-09T08:49:38.085Z,4.60
2022-11-09T08:52:05.017Z,4.32
2022-11-09T08:54:31.596Z,4.90
2022-11-09T08:56:59.669Z,2.45
2022-11-09T08:59:26.421Z,3.42
2022-11-09T09:01:53.051Z,2.03
2022-11-09T09:04:19.747Z,2.30
2022-11-09T09:06:46.335Z,1.73
2022-11-09T09:09:13.044Z,5.03
2022-11-09T09:11:39.620Z,3.22
2022-11-09T09:14:07.680Z,2.30
2022-11-09T09:16:34.211Z,4.35
2022-11-09T09:19:00.837Z,2.92
2022-11-09T09:21:27.593Z,3.10
2022-11-09T09:23:54.894Z,7.18
2022-11-09T09:26:21.555Z,1.92
2022-11-09T09:28:48.335Z,3.10
2022-11-09T09:31:18.521Z,2.38
2022-11-09T09:33:45.703Z,4.70
2022-11-09T09:36:16.842Z,3.67
2022-11-09T09:38:43.644Z,1.98
2022-11-09T09:41:21.965Z,3.22
2022-11-09T09:43:50.705Z,1.67
2022-11-09T09:46:23.626Z,2.15
2022-11-09T09:48:54.973Z,3.05
2022-11-09T09:51:27.502Z,1.92
2022-11-09T09:53:59.113Z,3.38
2022-11-09T09:56:30.837Z,2.05
2022-11-09T09:59:04.176Z,1.58
2022-11-09T10:01:38.713Z,3.92
2022-11-09T10:04:15.032Z,4.25
2022-11-09T10:06:55.312Z,3.60
2022-11-09T10:09:31.839Z,2.58
2022-11-09T10:12:07.645Z,1.55
2022-11-09T10:15:06.620Z,1.73
2022-11-09T10:17:43.915Z,4.32
2022-11-09T10:20:24.904Z,2.33
2022-11-09T10:23:02.617Z,2.72
2022-11-09T10:25:57.784Z,1.65
2022-11-09T10:28:25.591Z,3.40
2022-11-09T10:30:52.213Z,4.38
2022-11-09T10:33:21.557Z,2.17
2022-11-09T10:35:55.033Z,4.88
2022-11-09T10:38:27.803Z,4.28
2022-11-09T10:41:23.773Z,2.67
2022-11-09T10:44:17.359Z,4.50
2022-11-09T10:47:07.163Z,4.40
2022-11-09T10:50:24.672Z,5.82
2022-11-09T10:53:16.828Z,3.58
2022-11-09T10:56:19.901Z,2.80
2022-11-09T10:59:36.535Z,1.50
2022-11-09T11:02:46.180Z,4.88
2022-11-09T11:05:34.037Z,4.38
2022-11-09T11:08:38.165Z,6.15
2022-11-09T11:11:35.424Z,3.42
2022-11-09T11:14:29.398Z,2.00
2022-11-09T11:17:24.040Z,3.88
2022-11-09T11:20:28.930Z,4.35
2022-11-09T11:23:17.249Z,5.85
2022-11-09T11:26:15.752Z,3.75
2022-11-09T11:29:06.549Z,5.20
2022-11-09T11:31:52.008Z,6.53
2022-11-09T11:34:59.313Z,6.57
2022-11-09T11:37:55.616Z,6.45
2022-11-09T11:40:50.862Z,7.05
2022-11-09T11:43:49.387Z,5.15
2022-11-09T11:46:44.831Z,7.90
2022-11-09T11:49:53.502Z,8.70
2022-11-09T11:52:50.045Z,5.70
2022-11-09T11:56:18.333Z,10.88
2022-11-09T11:59:19.137Z,6.57
2022-11-09T12:02:28.758Z,4.67
2022-11-09T12:05:32.825Z,6.75
2022-11-09T12:08:26.260Z,5.85
2022-11-09T12:11:27.496Z,6.90
2022-11-09T12:14:24.933Z,4.95
2022-11-09T12:17:18.589Z,5.68
2022-11-09T12:20:18.146Z,6.15
2022-11-09T12:23:27.430Z,4.88
2022-11-09T12:26:24.424Z,3.55
2022-11-09T12:29:17.805Z,6.20
2022-11-09T12:32:12.502Z,4.53
2022-11-09T12:35:12.625Z,6.43
2022-11-09T12:38:02.756Z,8.15
2022-11-09T12:40:52.116Z,4.75
2022-11-09T12:43:48.034Z,3.45
2022-11-09T12:46:38.770Z,5.13
2022-11-09T12:49:33.410Z,4.43
2022-11-09T12:52:21.148Z,3.35
2022-11-09T12:55:07.504Z,6.00
2022-11-09T12:57:59.642Z,5.13
2022-11-09T13:00:53.581Z,8.50
2022-11-09T13:03:50.955Z,5.25
2022-11-09T13:06:36.007Z,5.20
2022-11-09T13:09:24.125Z,7.10
2022-11-09T13:12:17.704Z,3.83
2022-11-09T13:15:21.486Z,7.43
2022-11-09T13:18:24.330Z,9.00
2022-11-09T13:21:35.367Z,7.95
2022-11-09T13:24:54.141Z,7.20
2022-11-09T13:27:44.710Z,6.57
2022-11-09T13:30:41.925Z,6.53
2022-11-09T13:33:29.146Z,4.95
2022-11-09T13:36:19.507Z,4.35
2022-11-09T13:39:32.861Z,7.38
2022-11-09T13:42:28.189Z,4.63
2022-11-09T13:45:24.862Z,6.93
2022-11-09T13:48:25.504Z,6.80
2022-11-09T13:51:15.120Z,3.60
2022-11-09T13:54:01.484Z,6.18
2022-11-09T13:56:47.742Z,4.43
2022-11-09T13:59:37.008Z,6.05
2022-11-09T14:02:24.318Z,3.03
2022-11-09T14:05:23.499Z,6.70
2022-11-09T14:08:20.249Z,6.20
2022-11-09T14:11:27.998Z,6.35
2022-11-09T14:14:58.332Z,3.88
2022-11-09T14:17:57.034Z,3.70
2022-11-09T14:20:50.551Z,4.53
2022-11-09T14:23:37.147Z,5.38
2022-11-09T14:26:25.299Z,7.97
2022-11-09T14:29:20.852Z,8.15
2022-11-09T14:32:23.329Z,4.93
2022-11-09T14:35:18.697Z,6.47
2022-11-09T14:38:16.754Z,4.88
2022-11-09T14:41:03.742Z,5.45
2022-11-09T14:43:50.381Z,4.70
2022-11-09T14:46:35.329Z,5.07
2022-11-09T14:49:22.382Z,6.28
2022-11-09T14:52:12.568Z,8.30
2022-11-09T14:54:58.360Z,4.13
2022-11-09T14:57:46.640Z,7.18
2022-11-09T15:00:34.280Z,9.50
2022-11-09T15:03:25.108Z,3.60
2022-11-09T15:06:12.950Z,2.80
2022-11-09T15:09:00.978Z,7.95
2022-11-09T15:11:47.090Z,5.47
2022-11-09T15:14:35.395Z,2.70
2022-11-09T15:17:24.620Z,6.25
2022-11-09T15:20:27.673Z,3.75
2022-11-09T15:23:24.138Z,3.15
2022-11-09T15:26:26.381Z,4.68
2022-11-09T15:29:38.597Z,5.03
2022-11-09T15:32:23.848Z,3.10
2022-11-09T15:35:16.373Z,7.22
2022-11-09T15:38:02.088Z,6.25
2022-11-09T15:40:47.361Z,5.45
2022-11-09T15:43:32.468Z,5.90
2022-11-09T15:46:20.800Z,6.35
2022-11-09T15:49:16.628Z,4.55
2022-11-09T15:52:03.210Z,4.22
2022-11-09T15:54:48.678Z,4.72
2022-11-09T15:57:33.684Z,4.18
2022-11-09T16:00:21.610Z,4.82
2022-11-09T16:03:09.614Z,6.57
2022-11-09T16:05:54.838Z,8.10
2022-11-09T16:08:39.881Z,9.82
2022-11-09T16:11:25.155Z,6.57
2022-11-09T16:14:10.298Z,7.63
2022-11-09T16:16:55.589Z,11.43
2022-11-09T16:19:42.326Z,5.20
2022-11-09T16:22:29.994Z,8.93
2022-11-09T16:25:15.622Z,5.03
2022-11-09T16:28:00.744Z,14.40
2022-11-09T16:30:46.989Z,9.82
2022-11-09T16:33:32.646Z,13.50
2022-11-09T16:36:21.726Z,11.15
2022-11-09T16:39:09.054Z,6.38
2022-11-09T16:41:54.080Z,5.85
2022-11-09T16:44:42.040Z,6.28
2022-11-09T16:47:27.584Z,8.98
2022-11-09T16:50:13.561Z,7.43
2022-11-09T16:53:00.011Z,7.78
2022-11-09T16:55:45.124Z,6.20
2022-11-09T16:58:30.277Z,4.97
2022-11-09T17:01:19.245Z,4.53
2022-11-09T17:04:08.145Z,5.72
2022-11-09T17:06:54.507Z,4.53
2022-11-09T17:09:40.911Z,6.88
2022-11-09T17:12:28.707Z,4.55
2022-11-09T17:15:13.823Z,8.48
2022-11-09T17:17:58.870Z,6.63
2022-11-09T17:20:45.660Z,6.88
2022-11-09T17:23:30.825Z,7.78
2022-11-09T17:26:18.882Z,5.18
2022-11-09T17:29:04.741Z,5.13
2022-11-09T17:31:50.789Z,11.93
2022-11-09T17:34:36.076Z,7.15
2022-11-09T17:37:22.581Z,20.33
2022-11-09T17:40:09.369Z,7.63
2022-11-09T17:42:56.202Z,11.25
2022-11-09T17:45:41.603Z,10.18
2022-11-09T17:48:26.925Z,6.40
2022-11-09T17:51:13.662Z,8.52
2022-11-09T17:53:59.209Z,7.10
2022-11-09T17:56:44.221Z,4.18
2022-11-09T17:59:30.977Z,4.75
2022-11-09T18:02:17.113Z,4.95
2022-11-09T18:05:05.006Z,8.45
2022-11-09T18:07:52.621Z,9.30
2022-11-09T18:10:39.325Z,7.43
2022-11-09T18:13:24.694Z,9.30
2022-11-09T18:16:17.431Z,7.85
2022-11-09T18:19:04.384Z,7.07
2022-11-09T18:21:49.468Z,9.68
2022-11-09T18:24:34.767Z,7.35
2022-11-09T18:27:19.979Z,3.78
2022-11-09T18:30:05.983Z,5.40
2022-11-09T18:32:52.330Z,8.45
2022-11-09T18:35:37.363Z,13.02
2022-11-09T18:38:28.083Z,18.70
2022-11-09T18:41:15.961Z,15.45
2022-11-09T18:44:01.359Z,13.75
2022-11-09T18:46:46.682Z,6.93
2022-11-09T18:49:32.986Z,7.72
2022-11-09T18:52:18.664Z,6.88
2022-11-09T18:55:04.514Z,9.90
2022-11-09T18:57:49.737Z,9.60
2022-11-09T19:00:34.827Z,8.98
2022-11-09T19:03:20.084Z,9.65
2022-11-09T19:06:09.049Z,7.95
2022-11-09T19:08:54.593Z,7.53
2022-11-09T19:11:39.711Z,9.50
2022-11-09T19:14:25.152Z,8.23
2022-11-09T19:17:12.955Z,9.85
2022-11-09T19:19:58.215Z,6.15
2022-11-09T19:22:45.132Z,7.72
2022-11-09T19:25:30.254Z,5.70
2022-11-09T19:28:15.780Z,8.10
2022-11-09T19:31:01.084Z,8.68
2022-11-09T19:33:46.490Z,7.80
2022-11-09T19:36:32.080Z,6.22
2022-11-09T19:39:18.880Z,5.20
2022-11-09T19:42:04.440Z,5.32
2022-11-09T19:44:55.180Z,7.22
2022-11-09T19:47:42.070Z,4.45
2022-11-09T19:50:27.642Z,8.88
2022-11-09T19:53:13.069Z,7.65
2022-11-09T19:55:59.746Z,7.20
2022-11-09T19:58:48.179Z,6.30
2022-11-09T20:01:34.022Z,5.57
2022-11-09T20:04:19.009Z,4.47
2022-11-09T20:07:04.135Z,5.60
2022-11-09T20:09:49.452Z,6.05
2022-11-09T20:12:35.928Z,6.53
2022-11-09T20:15:21.702Z,8.20
2022-11-09T20:18:06.628Z,9.23
2022-11-09T20:20:53.378Z,6.93
2022-11-09T20:23:39.404Z,5.05
2022-11-09T20:26:24.716Z,7.00
2022-11-09T20:29:11.181Z,5.63
2022-11-09T20:31:56.485Z,6.65
2022-11-09T20:34:41.409Z,6.10
2022-11-09T20:37:26.697Z,7.50
2022-11-09T20:40:12.669Z,5.90
2022-11-09T20:42:58.111Z,7.70
2022-11-09T20:45:44.832Z,10.75
2022-11-09T20:48:52.677Z,9.85
2022-11-09T20:51:35.810Z,8.00
2022-11-09T20:54:21.198Z,7.03
2022-11-09T20:57:06.434Z,7.47
2022-11-09T20:59:51.681Z,5.40
2022-11-09T21:02:38.121Z,6.72
2022-11-09T21:05:23.709Z,10.57
2022-11-09T21:08:08.912Z,8.98
2022-11-09T21:10:54.463Z,9.13
2022-11-09T21:13:40.123Z,8.88
2022-11-09T21:16:25.187Z,10.23
2022-11-09T21:19:11.598Z,13.00
2022-11-09T21:21:56.965Z,7.50
2022-11-09T21:24:42.313Z,9.00
2022-11-09T21:27:27.675Z,12.93
2022-11-09T21:30:13.052Z,8.68
2022-11-09T21:32:58.564Z,8.05
2022-11-09T21:35:45.322Z,9.23
2022-11-09T21:38:32.275Z,9.77
2022-11-09T21:41:17.740Z,8.10
2022-11-09T21:44:03.820Z,10.32
2022-11-09T21:46:49.018Z,11.60
2022-11-09T21:49:34.148Z,9.70
2022-11-09T21:52:20.377Z,8.10
2022-11-09T21:55:06.232Z,9.07
2022-11-09T21:57:51.509Z,10.27
2022-11-09T22:00:36.521Z,7.82
2022-11-09T22:03:22.169Z,11.07
2022-11-09T22:06:08.531Z,6.82
2022-11-09T22:08:55.152Z,9.55
2022-11-09T22:11:40.286Z,7.78
2022-11-09T22:14:25.726Z,5.53
2022-11-09T22:17:10.962Z,8.63
2022-11-09T22:19:56.161Z,9.82
2022-11-09T22:22:41.087Z,8.07
2022-11-09T22:25:27.650Z,6.72
2022-11-09T22:28:12.663Z,7.35
2022-11-09T22:31:00.273Z,7.78
2022-11-09T22:33:45.319Z,5.82
2022-11-09T22:36:30.544Z,6.38
2022-11-09T22:39:15.778Z,7.68
2022-11-09T22:42:02.246Z,6.88
2022-11-09T22:44:47.563Z,4.82
2022-11-09T22:47:32.507Z,7.63
2022-11-09T22:50:17.837Z,5.22
2022-11-09T22:53:04.111Z,6.03
2022-11-09T22:55:52.293Z,4.43
2022-11-09T22:58:40.073Z,6.82
2022-11-09T23:01:25.461Z,6.38
2022-11-09T23:04:10.929Z,4.50
2022-11-09T23:06:56.077Z,5.00
2022-11-09T23:09:41.632Z,4.85
2022-11-09T23:12:26.881Z,5.05
2022-11-09T23:15:13.181Z,4.78
2022-11-09T23:17:59.191Z,7.95
2022-11-09T23:20:44.395Z,6.30
2022-11-09T23:23:29.594Z,4.80
2022-11-09T23:26:15.382Z,5.72
2022-11-09T23:29:00.839Z,5.78
2022-11-09T23:31:47.308Z,6.72
2022-11-09T23:34:32.638Z,8.10
2022-11-09T23:37:18.050Z,5.40
2022-11-09T23:40:03.931Z,9.07
2022-11-09T23:42:48.981Z,7.15
2022-11-09T23:45:35.321Z,9.20
2022-11-09T23:48:21.574Z,7.75
2022-11-09T23:51:07.842Z,6.90
2022-11-09T23:53:52.963Z,7.53
2022-11-09T23:56:38.744Z,7.90
2022-11-09T23:59:24.029Z,10.23
